sensor_id;sensor_type;location;lat;lon;timestamp;P1;durP1;ratioP1;P2;durP2;ratioP2
61036;SDS011;57313;47.040;15.498;2022-09-27T00:00:45;9.48;;;4.20;;
61036;SDS011;57313;47.040;15.498;2022-09-27T00:03:13;10.15;;;4.25;;
61036;SDS011;57313;47.040;15.498;2022-09-27T00:05:40;9.70;;;4.00;;
61036;SDS011;57313;47.040;15.498;2022-09-27T00:08:07;12.95;;;4.38;;
61036;SDS011;57313;47.040;15.498;2022-09-27T00:10:34;9.23;;;3.97;;
61036;SDS011;57313;47.040;15.498;2022-09-27T00:13:02;9.95;;;4.38;;
61036;SDS011;57313;47.040;15.498;2022-09-27T00:15:29;10.43;;;4.40;;
61036;SDS011;57313;47.040;15.498;2022-09-27T00:17:57;9.68;;;4.05;;
61036;SDS011;57313;47.040;15.498;2022-09-27T00:20:24;9.13;;;4.07;;
61036;SDS011;57313;47.040;15.498;2022-09-27T00:22:52;9.00;;;3.63;;
61036;SDS011;57313;47.040;15.498;2022-09-27T00:25:19;10.63;;;4.70;;
61036;SDS011;57313;47.040;15.498;2022-09-27T00:27:46;9.27;;;4.38;;
61036;SDS011;57313;47.040;15.498;2022-09-27T00:30:14;12.70;;;4.60;;
61036;SDS011;57313;47.040;15.498;2022-09-27T00:32:41;9.55;;;4.40;;
61036;SDS011;57313;47.040;15.498;2022-09-27T00:35:11;9.75;;;4.43;;
61036;SDS011;57313;47.040;15.498;2022-09-27T00:37:39;10.55;;;5.03;;
61036;SDS011;57313;47.040;15.498;2022-09-27T00:40:06;10.65;;;4.47;;
61036;SDS011;57313;47.040;15.498;2022-09-27T00:42:34;15.70;;;5.03;;
61036;SDS011;57313;47.040;15.498;2022-09-27T00:45:03;11.65;;;4.95;;
61036;SDS011;57313;47.040;15.498;2022-09-27T00:47:34;9.80;;;4.43;;
61036;SDS011;57313;47.040;15.498;2022-09-27T00:50:06;10.25;;;4.78;;
61036;SDS011;57313;47.040;15.498;2022-09-27T00:52:42;10.93;;;4.75;;
61036;SDS011;57313;47.040;15.498;2022-09-27T00:55:14;9.52;;;4.35;;
61036;SDS011;57313;47.040;15.498;2022-09-27T00:57:47;12.82;;;4.65;;
61036;SDS011;57313;47.040;15.498;2022-09-27T01:00:16;10.30;;;4.80;;
61036;SDS011;57313;47.040;15.498;2022-09-27T01:02:45;10.35;;;4.65;;
61036;SDS011;57313;47.040;15.498;2022-09-27T01:05:16;11.00;;;5.22;;
61036;SDS011;57313;47.040;15.498;2022-09-27T01:07:47;10.55;;;4.93;;
61036;SDS011;57313;47.040;15.498;2022-09-27T01:10:14;17.50;;;5.25;;
61036;SDS011;57313;47.040;15.498;2022-09-27T01:12:48;14.73;;;5.72;;
61036;SDS011;57313;47.040;15.498;2022-09-27T01:15:25;9.63;;;4.28;;
61036;SDS011;57313;47.040;15.498;2022-09-27T01:18:06;10.52;;;5.20;;
61036;SDS011;57313;47.040;15.498;2022-09-27T01:27:08;10.80;;;4.47;;
61036;SDS011;57313;47.040;15.498;2022-09-27T01:30:18;9.53;;;4.53;;
61036;SDS011;57313;47.040;15.498;2022-09-27T01:32:48;10.52;;;4.38;;
61036;SDS011;57313;47.040;15.498;2022-09-27T01:35:23;10.63;;;4.60;;
61036;SDS011;57313;47.040;15.498;2022-09-27T01:38:01;10.70;;;4.57;;
61036;SDS011;57313;47.040;15.498;2022-09-27T01:40:39;10.45;;;4.35;;
61036;SDS011;57313;47.040;15.498;2022-09-27T01:43:14;10.85;;;5.07;;
61036;SDS011;57313;47.040;15.498;2022-09-27T01:45:50;9.90;;;4.55;;
61036;SDS011;57313;47.040;15.498;2022-09-27T01:48:22;11.05;;;4.43;;
61036;SDS011;57313;47.040;15.498;2022-09-27T01:50:56;9.05;;;4.25;;
61036;SDS011;57313;47.040;15.498;2022-09-27T01:53:30;11.05;;;5.00;;
61036;SDS011;57313;47.040;15.498;2022-09-27T01:56:01;10.73;;;4.85;;
61036;SDS011;57313;47.040;15.498;2022-09-27T01:58:33;10.88;;;4.70;;
61036;SDS011;57313;47.040;15.498;2022-09-27T02:01:08;9.65;;;4.47;;
61036;SDS011;57313;47.040;15.498;2022-09-27T02:03:39;9.52;;;4.53;;
61036;SDS011;57313;47.040;15.498;2022-09-27T02:06:12;9.55;;;4.57;;
61036;SDS011;57313;47.040;15.498;2022-09-27T02:08:45;8.77;;;3.95;;
61036;SDS011;57313;47.040;15.498;2022-09-27T02:11:16;9.35;;;4.47;;
61036;SDS011;57313;47.040;15.498;2022-09-27T02:13:45;11.10;;;5.18;;
61036;SDS011;57313;47.040;15.498;2022-09-27T02:16:21;10.35;;;4.63;;
61036;SDS011;57313;47.040;15.498;2022-09-27T02:18:56;11.02;;;4.82;;
61036;SDS011;57313;47.040;15.498;2022-09-27T02:21:33;10.43;;;4.38;;
61036;SDS011;57313;47.040;15.498;2022-09-27T02:24:06;11.00;;;4.65;;
61036;SDS011;57313;47.040;15.498;2022-09-27T02:26:39;11.63;;;5.00;;
61036;SDS011;57313;47.040;15.498;2022-09-27T02:29:10;11.55;;;5.13;;
61036;SDS011;57313;47.040;15.498;2022-09-27T02:31:44;9.85;;;4.82;;
61036;SDS011;57313;47.040;15.498;2022-09-27T02:34:13;10.88;;;4.70;;
61036;SDS011;57313;47.040;15.498;2022-09-27T02:36:44;9.57;;;4.63;;
61036;SDS011;57313;47.040;15.498;2022-09-27T02:39:12;11.50;;;5.13;;
61036;SDS011;57313;47.040;15.498;2022-09-27T02:41:39;9.68;;;4.80;;
61036;SDS011;57313;47.040;15.498;2022-09-27T02:44:07;12.38;;;5.75;;
61036;SDS011;57313;47.040;15.498;2022-09-27T02:49:38;10.32;;;4.32;;
61036;SDS011;57313;47.040;15.498;2022-09-27T02:52:17;12.90;;;5.05;;
61036;SDS011;57313;47.040;15.498;2022-09-27T02:54:58;11.98;;;5.55;;
61036;SDS011;57313;47.040;15.498;2022-09-27T02:57:35;12.80;;;5.43;;
61036;SDS011;57313;47.040;15.498;2022-09-27T03:00:12;11.00;;;4.90;;
61036;SDS011;57313;47.040;15.498;2022-09-27T03:02:48;11.90;;;5.45;;
61036;SDS011;57313;47.040;15.498;2022-09-27T03:05:22;12.93;;;6.63;;
61036;SDS011;57313;47.040;15.498;2022-09-27T03:07:52;13.43;;;6.00;;
61036;SDS011;57313;47.040;15.498;2022-09-27T03:10:21;13.40;;;5.72;;
61036;SDS011;57313;47.040;15.498;2022-09-27T03:12:49;12.57;;;6.22;;
61036;SDS011;57313;47.040;15.498;2022-09-27T03:15:17;12.57;;;5.90;;
61036;SDS011;57313;47.040;15.498;2022-09-27T03:17:44;12.25;;;5.97;;
61036;SDS011;57313;47.040;15.498;2022-09-27T03:20:13;13.25;;;5.78;;
61036;SDS011;57313;47.040;15.498;2022-09-27T03:22:40;10.13;;;5.10;;
61036;SDS011;57313;47.040;15.498;2022-09-27T03:25:08;13.38;;;6.38;;
61036;SDS011;57313;47.040;15.498;2022-09-27T03:27:35;13.77;;;6.03;;
61036;SDS011;57313;47.040;15.498;2022-09-27T03:30:02;14.18;;;6.55;;
61036;SDS011;57313;47.040;15.498;2022-09-27T03:32:31;12.68;;;5.85;;
61036;SDS011;57313;47.040;15.498;2022-09-27T03:34:59;14.77;;;6.53;;
61036;SDS011;57313;47.040;15.498;2022-09-27T03:37:28;13.65;;;6.28;;
61036;SDS011;57313;47.040;15.498;2022-09-27T03:39:55;14.00;;;6.45;;
61036;SDS011;57313;47.040;15.498;2022-09-27T03:42:23;12.18;;;6.53;;
61036;SDS011;57313;47.040;15.498;2022-09-27T03:44:51;12.30;;;6.10;;
61036;SDS011;57313;47.040;15.498;2022-09-27T03:47:18;11.57;;;5.70;;
61036;SDS011;57313;47.040;15.498;2022-09-27T03:49:46;11.93;;;5.85;;
61036;SDS011;57313;47.040;15.498;2022-09-27T03:52:14;12.32;;;6.22;;
61036;SDS011;57313;47.040;15.498;2022-09-27T03:54:43;11.88;;;5.75;;
61036;SDS011;57313;47.040;15.498;2022-09-27T03:57:10;12.27;;;6.07;;
61036;SDS011;57313;47.040;15.498;2022-09-27T03:59:37;10.63;;;5.15;;
61036;SDS011;57313;47.040;15.498;2022-09-27T04:02:04;12.77;;;5.78;;
61036;SDS011;57313;47.040;15.498;2022-09-27T04:04:32;15.05;;;6.20;;
61036;SDS011;57313;47.040;15.498;2022-09-27T04:06:59;13.27;;;5.90;;
61036;SDS011;57313;47.040;15.498;2022-09-27T04:09:26;12.45;;;6.20;;
61036;SDS011;57313;47.040;15.498;2022-09-27T04:11:55;12.32;;;6.00;;
61036;SDS011;57313;47.040;15.498;2022-09-27T04:14:23;11.00;;;5.65;;
61036;SDS011;57313;47.040;15.498;2022-09-27T04:16:50;11.00;;;5.13;;
61036;SDS011;57313;47.040;15.498;2022-09-27T04:19:19;11.70;;;5.72;;
61036;SDS011;57313;47.040;15.498;2022-09-27T04:21:46;13.18;;;5.90;;
61036;SDS011;57313;47.040;15.498;2022-09-27T04:24:13;13.63;;;6.28;;
61036;SDS011;57313;47.040;15.498;2022-09-27T04:26:41;11.63;;;5.68;;
61036;SDS011;57313;47.040;15.498;2022-09-27T04:29:10;12.98;;;5.40;;
61036;SDS011;57313;47.040;15.498;2022-09-27T04:31:38;11.45;;;5.30;;
61036;SDS011;57313;47.040;15.498;2022-09-27T04:34:05;11.73;;;5.25;;
61036;SDS011;57313;47.040;15.498;2022-09-27T04:36:33;10.32;;;4.70;;
61036;SDS011;57313;47.040;15.498;2022-09-27T04:39:02;12.65;;;4.97;;
61036;SDS011;57313;47.040;15.498;2022-09-27T04:41:31;11.73;;;4.78;;
61036;SDS011;57313;47.040;15.498;2022-09-27T04:43:58;10.77;;;4.70;;
61036;SDS011;57313;47.040;15.498;2022-09-27T04:46:29;10.98;;;4.85;;
61036;SDS011;57313;47.040;15.498;2022-09-27T04:48:57;10.55;;;4.32;;
61036;SDS011;57313;47.040;15.498;2022-09-27T04:51:25;10.93;;;4.63;;
61036;SDS011;57313;47.040;15.498;2022-09-27T04:53:54;11.40;;;4.40;;
61036;SDS011;57313;47.040;15.498;2022-09-27T04:56:22;9.07;;;4.13;;
61036;SDS011;57313;47.040;15.498;2022-09-27T04:58:49;10.43;;;4.57;;
61036;SDS011;57313;47.040;15.498;2022-09-27T05:01:16;10.23;;;4.13;;
61036;SDS011;57313;47.040;15.498;2022-09-27T05:03:46;11.48;;;4.85;;
61036;SDS011;57313;47.040;15.498;2022-09-27T05:06:13;9.93;;;4.20;;
61036;SDS011;57313;47.040;15.498;2022-09-27T05:08:41;12.30;;;4.43;;
61036;SDS011;57313;47.040;15.498;2022-09-27T05:11:09;10.38;;;4.43;;
61036;SDS011;57313;47.040;15.498;2022-09-27T05:13:36;11.63;;;4.50;;
61036;SDS011;57313;47.040;15.498;2022-09-27T05:16:04;10.63;;;4.30;;
61036;SDS011;57313;47.040;15.498;2022-09-27T05:18:32;10.27;;;4.10;;
61036;SDS011;57313;47.040;15.498;2022-09-27T05:21:02;10.25;;;4.53;;
61036;SDS011;57313;47.040;15.498;2022-09-27T05:23:29;10.95;;;4.63;;
61036;SDS011;57313;47.040;15.498;2022-09-27T05:25:56;13.63;;;5.72;;
61036;SDS011;57313;47.040;15.498;2022-09-27T05:28:24;10.80;;;4.53;;
61036;SDS011;57313;47.040;15.498;2022-09-27T05:30:52;14.00;;;5.53;;
61036;SDS011;57313;47.040;15.498;2022-09-27T05:33:20;12.70;;;5.47;;
61036;SDS011;57313;47.040;15.498;2022-09-27T05:35:53;12.25;;;5.18;;
61036;SDS011;57313;47.040;15.498;2022-09-27T05:38:24;12.45;;;5.32;;
61036;SDS011;57313;47.040;15.498;2022-09-27T05:40:51;12.00;;;5.35;;
61036;SDS011;57313;47.040;15.498;2022-09-27T05:43:19;12.10;;;5.85;;
61036;SDS011;57313;47.040;15.498;2022-09-27T05:45:46;11.77;;;5.10;;
61036;SDS011;57313;47.040;15.498;2022-09-27T05:48:13;12.13;;;5.20;;
61036;SDS011;57313;47.040;15.498;2022-09-27T05:50:41;13.45;;;5.45;;
61036;SDS011;57313;47.040;15.498;2022-09-27T05:53:09;10.95;;;4.78;;
61036;SDS011;57313;47.040;15.498;2022-09-27T05:55:38;13.82;;;5.35;;
61036;SDS011;57313;47.040;15.498;2022-09-27T05:58:06;12.88;;;4.93;;
61036;SDS011;57313;47.040;15.498;2022-09-27T06:00:34;10.23;;;4.43;;
61036;SDS011;57313;47.040;15.498;2022-09-27T06:03:02;12.02;;;5.35;;
61036;SDS011;57313;47.040;15.498;2022-09-27T06:05:33;11.20;;;4.47;;
61036;SDS011;57313;47.040;15.498;2022-09-27T06:08:03;12.52;;;5.22;;
61036;SDS011;57313;47.040;15.498;2022-09-27T06:10:31;10.25;;;4.25;;
61036;SDS011;57313;47.040;15.498;2022-09-27T06:13:01;11.02;;;4.95;;
61036;SDS011;57313;47.040;15.498;2022-09-27T06:15:31;11.02;;;4.85;;
61036;SDS011;57313;47.040;15.498;2022-09-27T06:18:01;11.57;;;5.18;;
61036;SDS011;57313;47.040;15.498;2022-09-27T06:20:29;11.23;;;4.70;;
61036;SDS011;57313;47.040;15.498;2022-09-27T06:23:02;11.52;;;4.82;;
61036;SDS011;57313;47.040;15.498;2022-09-27T06:25:30;10.57;;;4.07;;
61036;SDS011;57313;47.040;15.498;2022-09-27T06:27:57;9.85;;;4.35;;
61036;SDS011;57313;47.040;15.498;2022-09-27T06:30:26;10.80;;;4.88;;
61036;SDS011;57313;47.040;15.498;2022-09-27T06:32:54;11.32;;;4.53;;
61036;SDS011;57313;47.040;15.498;2022-09-27T06:35:22;11.38;;;4.68;;
61036;SDS011;57313;47.040;15.498;2022-09-27T06:37:50;11.35;;;4.60;;
61036;SDS011;57313;47.040;15.498;2022-09-27T06:40:17;10.38;;;4.57;;
61036;SDS011;57313;47.040;15.498;2022-09-27T06:42:44;11.45;;;4.57;;
61036;SDS011;57313;47.040;15.498;2022-09-27T06:45:12;9.85;;;4.57;;
61036;SDS011;57313;47.040;15.498;2022-09-27T06:47:40;10.32;;;4.55;;
61036;SDS011;57313;47.040;15.498;2022-09-27T06:50:08;10.73;;;4.80;;
61036;SDS011;57313;47.040;15.498;2022-09-27T06:52:35;12.10;;;4.35;;
61036;SDS011;57313;47.040;15.498;2022-09-27T06:55:03;10.05;;;4.70;;
61036;SDS011;57313;47.040;15.498;2022-09-27T06:57:31;10.43;;;4.70;;
61036;SDS011;57313;47.040;15.498;2022-09-27T06:59:58;10.27;;;4.57;;
61036;SDS011;57313;47.040;15.498;2022-09-27T07:02:25;10.90;;;4.72;;
61036;SDS011;57313;47.040;15.498;2022-09-27T07:04:55;10.30;;;4.40;;
61036;SDS011;57313;47.040;15.498;2022-09-27T07:07:24;8.77;;;4.07;;
61036;SDS011;57313;47.040;15.498;2022-09-27T07:09:51;10.52;;;4.53;;
61036;SDS011;57313;47.040;15.498;2022-09-27T07:12:19;10.30;;;4.57;;
61036;SDS011;57313;47.040;15.498;2022-09-27T07:14:46;10.07;;;4.30;;
61036;SDS011;57313;47.040;15.498;2022-09-27T07:17:14;9.10;;;4.05;;
61036;SDS011;57313;47.040;15.498;2022-09-27T07:19:41;10.60;;;5.28;;
61036;SDS011;57313;47.040;15.498;2022-09-27T07:22:11;9.45;;;4.20;;
61036;SDS011;57313;47.040;15.498;2022-09-27T07:24:38;10.30;;;4.60;;
61036;SDS011;57313;47.040;15.498;2022-09-27T07:27:06;11.23;;;4.78;;
61036;SDS011;57313;47.040;15.498;2022-09-27T07:29:33;9.13;;;3.88;;
61036;SDS011;57313;47.040;15.498;2022-09-27T07:32:01;9.35;;;4.35;;
61036;SDS011;57313;47.040;15.498;2022-09-27T07:34:28;8.75;;;4.22;;
61036;SDS011;57313;47.040;15.498;2022-09-27T07:36:57;10.35;;;4.65;;
61036;SDS011;57313;47.040;15.498;2022-09-27T07:39:27;11.75;;;5.50;;
61036;SDS011;57313;47.040;15.498;2022-09-27T07:41:54;11.40;;;4.63;;
61036;SDS011;57313;47.040;15.498;2022-09-27T07:44:21;10.07;;;4.55;;
61036;SDS011;57313;47.040;15.498;2022-09-27T07:46:48;10.90;;;4.97;;
61036;SDS011;57313;47.040;15.498;2022-09-27T07:49:15;9.98;;;4.25;;
61036;SDS011;57313;47.040;15.498;2022-09-27T07:51:43;12.13;;;5.20;;
61036;SDS011;57313;47.040;15.498;2022-09-27T07:54:11;9.63;;;4.55;;
61036;SDS011;57313;47.040;15.498;2022-09-27T07:56:40;10.52;;;4.72;;
61036;SDS011;57313;47.040;15.498;2022-09-27T07:59:07;11.98;;;5.22;;
61036;SDS011;57313;47.040;15.498;2022-09-27T08:01:34;10.35;;;4.65;;
61036;SDS011;57313;47.040;15.498;2022-09-27T08:04:02;10.07;;;4.60;;
61036;SDS011;57313;47.040;15.498;2022-09-27T08:06:29;10.55;;;5.32;;
61036;SDS011;57313;47.040;15.498;2022-09-27T08:08:56;10.55;;;4.60;;
61036;SDS011;57313;47.040;15.498;2022-09-27T08:11:24;10.95;;;5.18;;
61036;SDS011;57313;47.040;15.498;2022-09-27T08:13:55;10.18;;;4.53;;
61036;SDS011;57313;47.040;15.498;2022-09-27T08:16:22;11.68;;;4.85;;
61036;SDS011;57313;47.040;15.498;2022-09-27T08:18:50;11.00;;;4.85;;
61036;SDS011;57313;47.040;15.498;2022-09-27T08:21:17;11.60;;;5.18;;
61036;SDS011;57313;47.040;15.498;2022-09-27T08:23:45;9.95;;;4.28;;
61036;SDS011;57313;47.040;15.498;2022-09-27T08:26:12;10.23;;;4.78;;
61036;SDS011;57313;47.040;15.498;2022-09-27T08:28:40;12.38;;;5.22;;
61036;SDS011;57313;47.040;15.498;2022-09-27T08:31:10;10.43;;;4.95;;
61036;SDS011;57313;47.040;15.498;2022-09-27T08:33:37;9.77;;;4.53;;
61036;SDS011;57313;47.040;15.498;2022-09-27T08:36:09;10.48;;;4.85;;
61036;SDS011;57313;47.040;15.498;2022-09-27T08:38:38;10.02;;;4.65;;
61036;SDS011;57313;47.040;15.498;2022-09-27T08:41:06;10.38;;;5.05;;
61036;SDS011;57313;47.040;15.498;2022-09-27T08:43:40;12.02;;;4.93;;
61036;SDS011;57313;47.040;15.498;2022-09-27T08:46:22;9.35;;;4.50;;
61036;SDS011;57313;47.040;15.498;2022-09-27T08:49:02;11.52;;;4.82;;
61036;SDS011;57313;47.040;15.498;2022-09-27T08:51:35;10.77;;;4.78;;
61036;SDS011;57313;47.040;15.498;2022-09-27T08:54:04;9.38;;;4.32;;
61036;SDS011;57313;47.040;15.498;2022-09-27T08:56:38;10.32;;;4.65;;
61036;SDS011;57313;47.040;15.498;2022-09-27T08:59:07;10.00;;;4.65;;
61036;SDS011;57313;47.040;15.498;2022-09-27T09:01:42;10.18;;;4.45;;
61036;SDS011;57313;47.040;15.498;2022-09-27T09:04:10;9.38;;;4.55;;
61036;SDS011;57313;47.040;15.498;2022-09-27T09:06:42;9.93;;;4.25;;
61036;SDS011;57313;47.040;15.498;2022-09-27T09:09:19;9.40;;;4.30;;
61036;SDS011;57313;47.040;15.498;2022-09-27T09:11:58;9.35;;;4.30;;
61036;SDS011;57313;47.040;15.498;2022-09-27T09:14:43;11.25;;;4.00;;
61036;SDS011;57313;47.040;15.498;2022-09-27T09:17:26;9.88;;;4.10;;
61036;SDS011;57313;47.040;15.498;2022-09-27T09:20:15;9.77;;;4.28;;
61036;SDS011;57313;47.040;15.498;2022-09-27T09:22:56;7.72;;;3.20;;
61036;SDS011;57313;47.040;15.498;2022-09-27T09:25:39;9.05;;;4.00;;
61036;SDS011;57313;47.040;15.498;2022-09-27T09:28:27;11.85;;;4.70;;
61036;SDS011;57313;47.040;15.498;2022-09-27T09:31:06;10.95;;;4.75;;
61036;SDS011;57313;47.040;15.498;2022-09-27T09:33:45;10.50;;;4.68;;
61036;SDS011;57313;47.040;15.498;2022-09-27T09:36:18;9.35;;;4.00;;
61036;SDS011;57313;47.040;15.498;2022-09-27T09:38:54;10.73;;;4.95;;
61036;SDS011;57313;47.040;15.498;2022-09-27T09:41:26;8.73;;;3.92;;
61036;SDS011;57313;47.040;15.498;2022-09-27T09:43:59;8.82;;;3.92;;
61036;SDS011;57313;47.040;15.498;2022-09-27T09:46:34;9.95;;;4.82;;
61036;SDS011;57313;47.040;15.498;2022-09-27T09:49:15;8.75;;;3.72;;
61036;SDS011;57313;47.040;15.498;2022-09-27T09:51:50;9.55;;;4.07;;
61036;SDS011;57313;47.040;15.498;2022-09-27T09:54:21;10.52;;;4.60;;
61036;SDS011;57313;47.040;15.498;2022-09-27T09:56:55;10.18;;;4.47;;
61036;SDS011;57313;47.040;15.498;2022-09-27T09:59:32;10.82;;;5.03;;
61036;SDS011;57313;47.040;15.498;2022-09-27T10:02:11;11.23;;;4.53;;
61036;SDS011;57313;47.040;15.498;2022-09-27T10:04:50;11.30;;;4.00;;
61036;SDS011;57313;47.040;15.498;2022-09-27T10:07:19;11.20;;;4.05;;
61036;SDS011;57313;47.040;15.498;2022-09-27T10:09:48;10.00;;;4.47;;
61036;SDS011;57313;47.040;15.498;2022-09-27T10:12:18;14.65;;;4.85;;
61036;SDS011;57313;47.040;15.498;2022-09-27T10:14:45;11.55;;;5.43;;
61036;SDS011;57313;47.040;15.498;2022-09-27T10:17:16;11.05;;;5.10;;
61036;SDS011;57313;47.040;15.498;2022-09-27T10:19:49;10.00;;;4.82;;
61036;SDS011;57313;47.040;15.498;2022-09-27T10:22:18;16.15;;;5.20;;
61036;SDS011;57313;47.040;15.498;2022-09-27T10:24:54;11.32;;;4.97;;
61036;SDS011;57313;47.040;15.498;2022-09-27T10:27:23;12.95;;;5.22;;
61036;SDS011;57313;47.040;15.498;2022-09-27T10:29:55;10.93;;;5.10;;
61036;SDS011;57313;47.040;15.498;2022-09-27T10:32:24;7.85;;;3.58;;
61036;SDS011;57313;47.040;15.498;2022-09-27T10:34:56;10.10;;;3.25;;
61036;SDS011;57313;47.040;15.498;2022-09-27T10:38:11;7.80;;;2.85;;
61036;SDS011;57313;47.040;15.498;2022-09-27T10:40:47;6.90;;;2.40;;
61036;SDS011;57313;47.040;15.498;2022-09-27T10:43:23;7.97;;;3.08;;
61036;SDS011;57313;47.040;15.498;2022-09-27T10:46:00;7.25;;;2.70;;
61036;SDS011;57313;47.040;15.498;2022-09-27T10:48:32;6.60;;;1.95;;
61036;SDS011;57313;47.040;15.498;2022-09-27T10:51:02;5.75;;;1.98;;
61036;SDS011;57313;47.040;15.498;2022-09-27T10:53:32;5.72;;;1.90;;
61036;SDS011;57313;47.040;15.498;2022-09-27T10:56:01;4.97;;;1.75;;
61036;SDS011;57313;47.040;15.498;2022-09-27T10:58:31;7.30;;;2.60;;
61036;SDS011;57313;47.040;15.498;2022-09-27T11:01:01;5.72;;;2.10;;
61036;SDS011;57313;47.040;15.498;2022-09-27T11:03:32;6.13;;;2.13;;
61036;SDS011;57313;47.040;15.498;2022-09-27T11:08:55;5.93;;;2.20;;
61036;SDS011;57313;47.040;15.498;2022-09-27T11:11:42;5.30;;;1.83;;
61036;SDS011;57313;47.040;15.498;2022-09-27T11:14:16;5.22;;;1.70;;
61036;SDS011;57313;47.040;15.498;2022-09-27T11:16:53;4.95;;;1.48;;
61036;SDS011;57313;47.040;15.498;2022-09-27T11:19:33;6.30;;;1.77;;
61036;SDS011;57313;47.040;15.498;2022-09-27T11:22:14;4.20;;;1.63;;
61036;SDS011;57313;47.040;15.498;2022-09-27T11:24:57;6.53;;;1.95;;
61036;SDS011;57313;47.040;15.498;2022-09-27T11:27:44;6.18;;;1.80;;
61036;SDS011;57313;47.040;15.498;2022-09-27T11:30:24;4.47;;;1.60;;
61036;SDS011;57313;47.040;15.498;2022-09-27T11:33:07;5.43;;;1.88;;
61036;SDS011;57313;47.040;15.498;2022-09-27T11:35:52;5.50;;;1.60;;
61036;SDS011;57313;47.040;15.498;2022-09-27T11:38:34;5.05;;;1.60;;
61036;SDS011;57313;47.040;15.498;2022-09-27T11:41:23;4.47;;;1.45;;
61036;SDS011;57313;47.040;15.498;2022-09-27T11:44:04;5.22;;;1.77;;
61036;SDS011;57313;47.040;15.498;2022-09-27T11:46:44;6.75;;;2.35;;
61036;SDS011;57313;47.040;15.498;2022-09-27T11:49:27;8.45;;;2.30;;
61036;SDS011;57313;47.040;15.498;2022-09-27T11:52:20;9.18;;;2.30;;
61036;SDS011;57313;47.040;15.498;2022-09-27T11:55:04;7.72;;;2.60;;
61036;SDS011;57313;47.040;15.498;2022-09-27T11:57:42;9.25;;;2.80;;
61036;SDS011;57313;47.040;15.498;2022-09-27T12:00:18;7.00;;;2.30;;
61036;SDS011;57313;47.040;15.498;2022-09-27T12:03:03;7.57;;;2.75;;
61036;SDS011;57313;47.040;15.498;2022-09-27T12:05:52;8.85;;;3.53;;
61036;SDS011;57313;47.040;15.498;2022-09-27T12:08:35;8.48;;;3.10;;
61036;SDS011;57313;47.040;15.498;2022-09-27T12:11:16;9.70;;;3.53;;
61036;SDS011;57313;47.040;15.498;2022-09-27T12:16:18;8.57;;;3.55;;
61036;SDS011;57313;47.040;15.498;2022-09-27T12:18:49;10.40;;;3.70;;
61036;SDS011;57313;47.040;15.498;2022-09-27T12:21:18;8.88;;;4.03;;
61036;SDS011;57313;47.040;15.498;2022-09-27T12:23:48;9.05;;;3.70;;
61036;SDS011;57313;47.040;15.498;2022-09-27T12:26:19;8.43;;;3.40;;
61036;SDS011;57313;47.040;15.498;2022-09-27T12:28:50;8.07;;;3.53;;
61036;SDS011;57313;47.040;15.498;2022-09-27T12:31:21;9.07;;;4.10;;
61036;SDS011;57313;47.040;15.498;2022-09-27T12:34:14;8.95;;;3.78;;
61036;SDS011;57313;47.040;15.498;2022-09-27T12:36:48;9.23;;;4.15;;
61036;SDS011;57313;47.040;15.498;2022-09-27T12:39:22;8.40;;;3.75;;
61036;SDS011;57313;47.040;15.498;2022-09-27T12:42:02;11.40;;;3.38;;
61036;SDS011;57313;47.040;15.498;2022-09-27T12:44:39;8.07;;;3.17;;
61036;SDS011;57313;47.040;15.498;2022-09-27T12:47:16;7.93;;;2.85;;
61036;SDS011;57313;47.040;15.498;2022-09-27T12:49:56;9.98;;;3.50;;
61036;SDS011;57313;47.040;15.498;2022-09-27T12:52:30;9.18;;;3.80;;
61036;SDS011;57313;47.040;15.498;2022-09-27T13:01:04;12.43;;;3.75;;
61036;SDS011;57313;47.040;15.498;2022-09-27T13:03:47;8.68;;;3.35;;
61036;SDS011;57313;47.040;15.498;2022-09-27T13:06:32;8.60;;;2.40;;
61036;SDS011;57313;47.040;15.498;2022-09-27T13:09:17;6.65;;;2.42;;
61036;SDS011;57313;47.040;15.498;2022-09-27T13:12:01;8.48;;;3.13;;
61036;SDS011;57313;47.040;15.498;2022-09-27T13:14:34;9.05;;;2.95;;
61036;SDS011;57313;47.040;15.498;2022-09-27T13:29:26;7.90;;;3.15;;
61036;SDS011;57313;47.040;15.498;2022-09-27T13:32:13;8.63;;;3.35;;
61036;SDS011;57313;47.040;15.498;2022-09-27T13:34:44;7.85;;;3.13;;
61036;SDS011;57313;47.040;15.498;2022-09-27T13:40:20;7.07;;;2.70;;
61036;SDS011;57313;47.040;15.498;2022-09-27T13:42:53;7.82;;;2.90;;
61036;SDS011;57313;47.040;15.498;2022-09-27T13:45:48;8.85;;;3.40;;
61036;SDS011;57313;47.040;15.498;2022-09-27T13:48:21;7.47;;;2.90;;
61036;SDS011;57313;47.040;15.498;2022-09-27T13:50:56;9.00;;;3.40;;
61036;SDS011;57313;47.040;15.498;2022-09-27T13:53:31;8.73;;;3.28;;
61036;SDS011;57313;47.040;15.498;2022-09-27T13:56:01;7.45;;;3.35;;
61036;SDS011;57313;47.040;15.498;2022-09-27T13:58:39;8.85;;;3.47;;
61036;SDS011;57313;47.040;15.498;2022-09-27T14:01:13;8.18;;;2.90;;
61036;SDS011;57313;47.040;15.498;2022-09-27T14:03:52;7.68;;;3.03;;
61036;SDS011;57313;47.040;15.498;2022-09-27T14:06:23;8.38;;;3.25;;
61036;SDS011;57313;47.040;15.498;2022-09-27T14:08:55;8.32;;;3.50;;
61036;SDS011;57313;47.040;15.498;2022-09-27T14:11:26;9.52;;;4.18;;
61036;SDS011;57313;47.040;15.498;2022-09-27T14:13:59;8.70;;;3.75;;
61036;SDS011;57313;47.040;15.498;2022-09-27T14:16:30;8.43;;;3.60;;
61036;SDS011;57313;47.040;15.498;2022-09-27T14:19:01;8.23;;;2.92;;
61036;SDS011;57313;47.040;15.498;2022-09-27T14:21:30;8.60;;;3.22;;
61036;SDS011;57313;47.040;15.498;2022-09-27T14:27:04;5.97;;;2.22;;
61036;SDS011;57313;47.040;15.498;2022-09-27T14:29:39;6.95;;;3.05;;
61036;SDS011;57313;47.040;15.498;2022-09-27T14:32:09;9.40;;;2.50;;
61036;SDS011;57313;47.040;15.498;2022-09-27T14:34:39;5.18;;;2.00;;
61036;SDS011;57313;47.040;15.498;2022-09-27T14:37:13;7.13;;;1.90;;
61036;SDS011;57313;47.040;15.498;2022-09-27T14:39:54;11.10;;;2.30;;
61036;SDS011;57313;47.040;15.498;2022-09-27T14:42:24;5.38;;;1.63;;
61036;SDS011;57313;47.040;15.498;2022-09-27T14:44:55;5.30;;;2.00;;
61036;SDS011;57313;47.040;15.498;2022-09-27T14:47:26;4.85;;;1.50;;
61036;SDS011;57313;47.040;15.498;2022-09-27T14:49:54;6.13;;;1.70;;
61036;SDS011;57313;47.040;15.498;2022-09-27T14:52:24;5.25;;;1.52;;
61036;SDS011;57313;47.040;15.498;2022-09-27T14:54:59;5.20;;;1.75;;
61036;SDS011;57313;47.040;15.498;2022-09-27T14:57:28;15.38;;;3.08;;
61036;SDS011;57313;47.040;15.498;2022-09-27T14:59:57;6.68;;;2.33;;
61036;SDS011;57313;47.040;15.498;2022-09-27T15:02:27;8.88;;;2.28;;
61036;SDS011;57313;47.040;15.498;2022-09-27T15:04:55;5.97;;;1.85;;
61036;SDS011;57313;47.040;15.498;2022-09-27T15:07:23;6.13;;;2.30;;
61036;SDS011;57313;47.040;15.498;2022-09-27T15:09:50;5.97;;;2.30;;
61036;SDS011;57313;47.040;15.498;2022-09-27T15:12:23;7.57;;;2.22;;
61036;SDS011;57313;47.040;15.498;2022-09-27T15:14:53;11.45;;;2.55;;
61036;SDS011;57313;47.040;15.498;2022-09-27T15:17:21;6.50;;;2.50;;
61036;SDS011;57313;47.040;15.498;2022-09-27T15:19:55;5.13;;;1.90;;
61036;SDS011;57313;47.040;15.498;2022-09-27T15:22:31;7.00;;;2.20;;
61036;SDS011;57313;47.040;15.498;2022-09-27T15:25:05;5.70;;;2.10;;
61036;SDS011;57313;47.040;15.498;2022-09-27T15:27:50;5.88;;;1.90;;
61036;SDS011;57313;47.040;15.498;2022-09-27T15:30:25;6.00;;;2.00;;
61036;SDS011;57313;47.040;15.498;2022-09-27T15:32:55;5.97;;;2.08;;